Time;durP1;ratioP1;P1;durP2;ratioP2;P2;SDS_P1;SDS_P2;PMS_P1;PMS_P2;Temp;Humidity;BMP_temperature;BMP_pressure;BME280_temperature;BME280_humidity;BME280_pressure;Samples;Min_cycle;Max_cycle;Signal;HPM_P1;HPM_P2
2022/08/14 00:02:43;;;;;;;1.13;1.00;;;;;;;;;;4986182;28;20034;-76
2022/08/14 00:05:23;;;;;;;1.98;1.08;;;;;;;;;;4993476;28;20076;-77
2022/08/14 00:08:14;;;;;;;1.27;1.13;;;;;;;;;;4977962;28;20037;-78
2022/08/14 00:11:14;;;;;;;1.30;1.17;;;;;;;;;;4982575;28;20030;-76
2022/08/14 00:13:47;;;;;;;2.05;1.63;;;;;;;;;;4992255;28;20038;-77
2022/08/14 00:16:15;;;;;;;1.45;1.02;;;;;;;;;;4981665;28;20412;-77
2022/08/14 00:18:46;;;;;;;0.85;0.75;;;;;;;;;;4993655;28;20034;-76
2022/08/14 00:21:14;;;;;;;1.25;0.90;;;;;;;;;;4994102;28;20026;-77
2022/08/14 00:26:32;;;;;;;1.17;1.02;;;;;;;;;;4974817;28;20096;-78
2022/08/14 00:29:03;;;;;;;3.65;1.73;;;;;;;;;;4976408;28;20030;-77
2022/08/14 00:31:38;;;;;;;2.83;1.80;;;;;;;;;;4975746;28;20038;-77
2022/08/14 00:34:08;;;;;;;1.23;1.13;;;;;;;;;;4972160;28;20054;-76
2022/08/14 00:36:36;;;;;;;1.58;1.35;;;;;;;;;;4976579;28;20034;-76
2022/08/14 00:39:05;;;;;;;1.20;1.10;;;;;;;;;;4975066;28;20026;-77
2022/08/14 00:41:33;;;;;;;1.95;0.88;;;;;;;;;;4975277;28;20030;-77
2022/08/14 00:43:59;;;;;;;2.67;1.52;;;;;;;;;;4975475;28;20082;-78
2022/08/14 00:46:27;;;;;;;0.95;0.80;;;;;;;;;;4961415;28;20405;-76
2022/08/14 00:48:54;;;;;;;1.35;1.20;;;;;;;;;;4976148;28;20069;-76
2022/08/14 00:51:25;;;;;;;2.13;1.73;;;;;;;;;;4975792;28;20039;-75
2022/08/14 00:53:53;;;;;;;1.80;1.20;;;;;;;;;;4976597;28;20522;-76
2022/08/14 00:56:20;;;;;;;1.63;1.05;;;;;;;;;;4976472;28;20031;-76
2022/08/14 00:58:46;;;;;;;1.80;1.25;;;;;;;;;;4959796;28;20061;-76
2022/08/14 01:01:13;;;;;;;2.30;1.65;;;;;;;;;;4976393;28;20110;-75
2022/08/14 01:03:39;;;;;;;3.63;1.10;;;;;;;;;;4987402;28;20066;-76
2022/08/14 01:06:11;;;;;;;1.88;1.48;;;;;;;;;;4996258;28;20065;-76
2022/08/14 01:08:56;;;;;;;1.42;1.33;;;;;;;;;;4996131;28;20109;-74
2022/08/14 01:11:24;;;;;;;1.42;1.17;;;;;;;;;;4996875;28;20038;-75
2022/08/14 01:13:51;;;;;;;1.92;1.25;;;;;;;;;;4996646;28;20083;-75
2022/08/14 01:16:19;;;;;;;3.97;1.55;;;;;;;;;;4995851;28;20456;-74
2022/08/14 01:21:31;;;;;;;1.98;1.23;;;;;;;;;;4996795;28;20052;-74
2022/08/14 01:23:59;;;;;;;2.70;1.70;;;;;;;;;;4995612;28;20022;-75
2022/08/14 01:26:28;;;;;;;1.88;1.50;;;;;;;;;;4986196;28;20045;-75
2022/08/14 01:28:56;;;;;;;1.50;1.23;;;;;;;;;;4995905;28;20365;-76
2022/08/14 01:31:25;;;;;;;2.10;1.45;;;;;;;;;;4996966;28;20688;-75
2022/08/14 01:33:55;;;;;;;2.75;2.08;;;;;;;;;;4996193;28;20038;-75
2022/08/14 01:36:22;;;;;;;0.80;0.80;;;;;;;;;;4996805;28;20037;-75
2022/08/14 01:38:55;;;;;;;1.83;1.38;;;;;;;;;;4995512;28;20041;-76
2022/08/14 01:41:23;;;;;;;2.70;1.48;;;;;;;;;;4995850;28;20049;-76
2022/08/14 01:44:09;;;;;;;2.83;1.42;;;;;;;;;;4997000;28;20022;-75
2022/08/14 01:46:37;;;;;;;2.10;1.83;;;;;;;;;;4996682;28;20041;-74
2022/08/14 01:49:05;;;;;;;2.78;1.90;;;;;;;;;;4994624;28;20112;-74
2022/08/14 01:51:31;;;;;;;1.95;1.60;;;;;;;;;;4995197;28;20138;-76
2022/08/14 01:54:08;;;;;;;1.65;1.40;;;;;;;;;;4995738;28;20109;-74
2022/08/14 01:56:37;;;;;;;1.40;1.27;;;;;;;;;;4979986;28;20033;-76
2022/08/14 01:59:09;;;;;;;1.92;1.70;;;;;;;;;;4994025;28;20057;-76
2022/08/14 02:01:34;;;;;;;2.87;1.60;;;;;;;;;;5000804;28;20030;-75
2022/08/14 02:04:04;;;;;;;1.83;1.30;;;;;;;;;;4995775;28;20261;-75
2022/08/14 02:06:29;;;;;;;2.90;1.73;;;;;;;;;;4995350;28;20408;-76
2022/08/14 02:09:04;;;;;;;2.08;1.52;;;;;;;;;;4995427;28;20096;-76
2022/08/14 02:11:30;;;;;;;2.22;1.67;;;;;;;;;;4993394;28;20042;-75
2022/08/14 02:14:13;;;;;;;1.92;1.73;;;;;;;;;;4979468;28;20100;-75
2022/08/14 02:16:46;;;;;;;2.13;1.20;;;;;;;;;;4980523;28;20458;-75
2022/08/14 02:19:14;;;;;;;1.00;0.77;;;;;;;;;;4995219;28;20084;-76
2022/08/14 02:21:43;;;;;;;7.40;1.98;;;;;;;;;;4996159;28;20092;-76
2022/08/14 02:24:09;;;;;;;2.28;2.08;;;;;;;;;;4995412;28;20069;-74
2022/08/14 02:26:39;;;;;;;2.10;1.50;;;;;;;;;;4995999;28;20565;-75
2022/08/14 02:29:06;;;;;;;1.80;1.40;;;;;;;;;;4974587;28;20081;-75
2022/08/14 02:31:34;;;;;;;2.72;1.88;;;;;;;;;;4980104;28;20050;-75
2022/08/14 02:34:06;;;;;;;3.83;1.92;;;;;;;;;;4996019;28;20034;-75
2022/08/14 02:36:31;;;;;;;1.52;1.42;;;;;;;;;;4994844;28;20480;-75
2022/08/14 02:38:57;;;;;;;3.15;2.38;;;;;;;;;;4994313;28;20030;-75
2022/08/14 02:41:23;;;;;;;6.45;2.97;;;;;;;;;;4995695;28;20357;-76
2022/08/14 02:43:49;;;;;;;6.50;2.00;;;;;;;;;;4994952;28;20058;-75
2022/08/14 02:46:17;;;;;;;1.65;1.08;;;;;;;;;;4994418;28;20235;-75
2022/08/14 02:48:45;;;;;;;2.55;1.17;;;;;;;;;;4995342;28;20037;-75
2022/08/14 02:51:14;;;;;;;2.10;1.58;;;;;;;;;;4990098;28;20030;-74
2022/08/14 02:53:43;;;;;;;2.67;1.85;;;;;;;;;;4994896;28;20129;-74
2022/08/14 02:56:09;;;;;;;1.38;1.15;;;;;;;;;;4994816;28;20033;-75
2022/08/14 02:58:40;;;;;;;2.40;1.77;;;;;;;;;;4995485;28;20033;-75
2022/08/14 03:01:07;;;;;;;2.75;1.90;;;;;;;;;;4977062;28;20556;-76
2022/08/14 03:03:36;;;;;;;3.33;2.17;;;;;;;;;;4994028;28;20022;-74
2022/08/14 03:06:03;;;;;;;1.98;1.73;;;;;;;;;;4994599;28;20030;-75
2022/08/14 03:08:32;;;;;;;2.08;1.40;;;;;;;;;;4995382;28;20361;-75
2022/08/14 03:10:59;;;;;;;2.85;2.10;;;;;;;;;;4994404;28;20085;-75
2022/08/14 03:13:24;;;;;;;2.63;2.17;;;;;;;;;;4994360;28;20103;-75
2022/08/14 03:15:53;;;;;;;3.13;1.48;;;;;;;;;;4995187;28;20485;-74
2022/08/14 03:18:23;;;;;;;4.57;2.70;;;;;;;;;;4993462;28;20445;-74
2022/08/14 03:20:49;;;;;;;2.38;1.52;;;;;;;;;;4994104;28;20453;-75
2022/08/14 03:23:18;;;;;;;4.55;1.55;;;;;;;;;;4994481;28;20073;-75
2022/08/14 03:25:44;;;;;;;3.13;1.95;;;;;;;;;;4993454;28;20449;-75
2022/08/14 03:28:09;;;;;;;2.15;1.40;;;;;;;;;;4994601;28;20369;-75
2022/08/14 03:30:37;;;;;;;1.92;1.60;;;;;;;;;;4994554;28;20026;-75
2022/08/14 03:33:03;;;;;;;3.13;2.17;;;;;;;;;;4993654;28;20065;-75
2022/08/14 03:35:29;;;;;;;2.50;1.80;;;;;;;;;;4994102;28;20038;-74
2022/08/14 03:38:03;;;;;;;4.38;2.42;;;;;;;;;;4995225;28;20471;-75
2022/08/14 03:40:29;;;;;;;2.70;2.10;;;;;;;;;;4994917;28;20037;-75
2022/08/14 03:42:54;;;;;;;3.13;2.25;;;;;;;;;;4992822;28;20030;-75
2022/08/14 03:45:20;;;;;;;2.22;1.52;;;;;;;;;;4994591;28;20033;-75
2022/08/14 03:47:47;;;;;;;1.88;1.40;;;;;;;;;;4994947;28;20033;-75
2022/08/14 03:50:13;;;;;;;2.55;1.67;;;;;;;;;;4994778;28;20037;-74
2022/08/14 03:52:41;;;;;;;1.67;1.48;;;;;;;;;;4993872;28;20113;-75
2022/08/14 03:55:11;;;;;;;2.97;2.28;;;;;;;;;;4993366;28;20161;-75
2022/08/14 03:57:39;;;;;;;2.90;2.25;;;;;;;;;;4992908;28;20076;-75
2022/08/14 04:00:10;;;;;;;1.67;1.58;;;;;;;;;;4993127;28;20034;-75
2022/08/14 04:02:42;;;;;;;3.25;2.47;;;;;;;;;;5001713;28;20084;-75
2022/08/14 04:05:08;;;;;;;1.40;1.30;;;;;;;;;;4996299;28;20022;-75
2022/08/14 04:07:38;;;;;;;4.47;2.15;;;;;;;;;;4993835;28;20091;-75
2022/08/14 04:10:04;;;;;;;2.38;1.75;;;;;;;;;;4994678;28;20030;-75
2022/08/14 04:12:29;;;;;;;5.15;2.47;;;;;;;;;;4994451;28;20038;-75
2022/08/14 04:14:55;;;;;;;4.68;2.38;;;;;;;;;;4993064;28;20472;-74
2022/08/14 04:17:21;;;;;;;2.97;2.13;;;;;;;;;;4994407;28;20539;-75
2022/08/14 04:19:46;;;;;;;1.67;1.42;;;;;;;;;;4994763;28;20334;-75
2022/08/14 04:22:12;;;;;;;2.50;1.58;;;;;;;;;;4993645;28;20066;-75
2022/08/14 04:24:39;;;;;;;6.28;2.10;;;;;;;;;;4993889;28;20034;-75
2022/08/14 04:27:09;;;;;;;3.67;2.10;;;;;;;;;;4977290;28;20033;-75
2022/08/14 04:29:44;;;;;;;3.95;2.22;;;;;;;;;;4992590;28;20438;-75
2022/08/14 04:32:10;;;;;;;1.88;1.48;;;;;;;;;;4993838;28;20065;-75
2022/08/14 04:34:40;;;;;;;1.48;1.33;;;;;;;;;;4994267;28;20046;-75
2022/08/14 04:45:39;;;;;;;2.30;1.80;;;;;;;;;;4998002;28;20484;-75
2022/08/14 04:48:15;;;;;;;3.13;1.65;;;;;;;;;;4998290;28;20030;-75
2022/08/14 04:50:52;;;;;;;2.33;2.10;;;;;;;;;;4996740;28;20030;-74
2022/08/14 04:53:22;;;;;;;4.03;2.03;;;;;;;;;;4997254;28;20043;-75
2022/08/14 04:55:48;;;;;;;3.28;1.30;;;;;;;;;;4996099;28;20069;-75
2022/08/14 04:58:18;;;;;;;3.22;1.65;;;;;;;;;;4997815;28;20045;-74
2022/08/14 05:00:44;;;;;;;2.08;1.08;;;;;;;;;;4997542;28;20022;-74
2022/08/14 05:03:09;;;;;;;2.55;2.03;;;;;;;;;;4997022;28;20456;-75
2022/08/14 05:05:35;;;;;;;2.70;1.83;;;;;;;;;;4997640;28;20065;-75
2022/08/14 05:08:13;;;;;;;2.92;2.05;;;;;;;;;;4996582;28;20058;-76
2022/08/14 05:10:49;;;;;;;2.53;1.95;;;;;;;;;;4997063;28;20030;-74
2022/08/14 05:13:15;;;;;;;2.47;1.77;;;;;;;;;;4980573;28;20107;-76
2022/08/14 05:15:41;;;;;;;2.47;1.60;;;;;;;;;;4996704;28;20403;-76
2022/08/14 05:18:11;;;;;;;2.78;2.55;;;;;;;;;;4996778;28;20053;-75
2022/08/14 05:20:38;;;;;;;9.85;2.20;;;;;;;;;;4996792;28;20026;-75
2022/08/14 05:23:03;;;;;;;2.83;1.75;;;;;;;;;;4996600;28;20029;-76
2022/08/14 05:25:28;;;;;;;4.30;2.22;;;;;;;;;;4995846;28;20026;-75
2022/08/14 05:27:58;;;;;;;2.63;1.95;;;;;;;;;;4994052;28;20108;-76
2022/08/14 05:30:24;;;;;;;2.08;1.75;;;;;;;;;;4997118;28;20137;-74
2022/08/14 05:32:49;;;;;;;2.53;1.80;;;;;;;;;;4995576;28;20042;-74
2022/08/14 05:35:15;;;;;;;2.28;1.85;;;;;;;;;;4996479;28;20079;-74
2022/08/14 05:37:49;;;;;;;2.20;1.55;;;;;;;;;;4996026;28;20342;-75
2022/08/14 05:40:14;;;;;;;1.42;1.30;;;;;;;;;;4997048;28;20026;-75
2022/08/14 05:42:39;;;;;;;2.83;2.03;;;;;;;;;;4996084;28;20041;-75
2022/08/14 05:45:07;;;;;;;3.30;2.22;;;;;;;;;;4997069;28;20469;-75
2022/08/14 05:47:40;;;;;;;3.10;2.22;;;;;;;;;;4994739;28;20026;-75
2022/08/14 05:50:08;;;;;;;4.82;2.42;;;;;;;;;;4996185;28;20034;-75
2022/08/14 05:52:35;;;;;;;4.45;3.28;;;;;;;;;;4996299;28;20037;-75
2022/08/14 05:55:03;;;;;;;4.88;2.92;;;;;;;;;;4996822;28;20037;-75
2022/08/14 05:57:31;;;;;;;4.35;2.35;;;;;;;;;;4994276;28;20030;-75
2022/08/14 05:59:56;;;;;;;3.28;2.17;;;;;;;;;;4996579;28;20018;-74
2022/08/14 06:02:26;;;;;;;4.57;2.88;;;;;;;;;;4996582;28;20457;-75
2022/08/14 06:04:51;;;;;;;2.53;1.88;;;;;;;;;;4995523;28;20022;-75
2022/08/14 06:07:19;;;;;;;3.20;2.17;;;;;;;;;;4996638;28;20023;-76
2022/08/14 06:09:45;;;;;;;3.15;2.00;;;;;;;;;;4993611;28;20033;-75
2022/08/14 06:12:12;;;;;;;4.07;2.40;;;;;;;;;;4995641;28;20342;-77
2022/08/14 06:14:38;;;;;;;3.15;1.92;;;;;;;;;;4996234;28;20030;-75
2022/08/14 06:17:03;;;;;;;3.08;2.22;;;;;;;;;;4995432;28;20110;-76
2022/08/14 06:19:28;;;;;;;3.72;2.40;;;;;;;;;;4978912;28;20339;-75
2022/08/14 06:21:54;;;;;;;2.83;2.22;;;;;;;;;;4995574;28;20041;-75
2022/08/14 06:24:22;;;;;;;3.45;2.42;;;;;;;;;;4995401;28;20068;-76
2022/08/14 06:26:47;;;;;;;3.13;2.15;;;;;;;;;;4995104;28;20052;-75
2022/08/14 06:29:13;;;;;;;2.53;1.77;;;;;;;;;;4996192;28;20022;-75
2022/08/14 06:31:38;;;;;;;2.97;2.38;;;;;;;;;;4996048;28;20018;-76
2022/08/14 06:34:03;;;;;;;3.45;1.75;;;;;;;;;;4992991;28;20030;-75
2022/08/14 06:36:29;;;;;;;4.32;2.20;;;;;;;;;;4994920;28;20037;-75
2022/08/14 06:38:56;;;;;;;3.75;2.30;;;;;;;;;;4995244;28;20435;-75
2022/08/14 06:41:22;;;;;;;3.08;2.20;;;;;;;;;;4994582;28;20413;-75
2022/08/14 06:43:48;;;;;;;3.92;2.55;;;;;;;;;;4994497;28;20033;-75
2022/08/14 06:46:14;;;;;;;2.30;1.40;;;;;;;;;;4993972;28;20034;-75
2022/08/14 06:48:39;;;;;;;3.25;2.67;;;;;;;;;;4994739;28;20037;-76
2022/08/14 06:51:09;;;;;;;3.42;2.17;;;;;;;;;;4995565;28;20118;-76
2022/08/14 06:53:35;;;;;;;1.67;1.40;;;;;;;;;;4995571;28;20100;-76
2022/08/14 06:56:00;;;;;;;3.00;2.50;;;;;;;;;;4994562;28;20378;-75
2022/08/14 06:58:26;;;;;;;3.83;2.50;;;;;;;;;;4994325;28;20054;-76
2022/08/14 07:06:24;;;;;;;1.80;1.70;;;;;;;;;;4995367;28;20097;-76
2022/08/14 07:08:51;;;;;;;2.33;2.10;;;;;;;;;;4991253;28;20022;-77
2022/08/14 07:11:16;;;;;;;2.15;1.77;;;;;;;;;;4994516;28;20369;-76
2022/08/14 07:13:43;;;;;;;1.90;1.75;;;;;;;;;;4994222;28;20026;-76
2022/08/14 07:16:11;;;;;;;2.85;1.80;;;;;;;;;;4978540;28;20026;-77
2022/08/14 07:18:38;;;;;;;2.25;1.83;;;;;;;;;;4994233;28;20174;-76
2022/08/14 07:21:05;;;;;;;2.42;1.95;;;;;;;;;;4992829;28;20062;-76
2022/08/14 07:23:30;;;;;;;1.95;1.75;;;;;;;;;;4995224;28;20395;-76
2022/08/14 07:25:57;;;;;;;2.58;2.03;;;;;;;;;;4995542;28;20076;-76
2022/08/14 07:28:26;;;;;;;1.83;1.63;;;;;;;;;;4989825;28;20031;-76
2022/08/14 07:30:58;;;;;;;2.47;1.70;;;;;;;;;;4994435;28;20034;-76
2022/08/14 07:33:25;;;;;;;2.75;1.70;;;;;;;;;;4993621;28;20479;-77
2022/08/14 07:35:52;;;;;;;1.00;0.90;;;;;;;;;;4995149;28;20121;-76
2022/08/14 07:38:21;;;;;;;3.83;2.00;;;;;;;;;;4977891;28;20405;-76
2022/08/14 07:40:50;;;;;;;1.60;1.40;;;;;;;;;;4995093;28;20038;-76
2022/08/14 07:43:16;;;;;;;2.13;1.77;;;;;;;;;;4994100;28;20034;-77
2022/08/14 07:45:43;;;;;;;2.10;1.65;;;;;;;;;;4995422;28;20054;-76
2022/08/14 07:48:11;;;;;;;2.03;1.70;;;;;;;;;;4992292;28;20030;-76
2022/08/14 07:50:38;;;;;;;2.40;1.67;;;;;;;;;;4994750;28;20038;-76
2022/08/14 07:53:05;;;;;;;2.45;2.05;;;;;;;;;;4993979;28;20430;-76
2022/08/14 07:55:31;;;;;;;3.55;2.47;;;;;;;;;;4994084;28;20038;-76
2022/08/14 07:57:57;;;;;;;1.95;1.77;;;;;;;;;;4993824;28;20184;-76
2022/08/14 08:00:23;;;;;;;2.17;1.65;;;;;;;;;;4994317;28;20413;-77
2022/08/14 08:02:55;;;;;;;2.15;1.65;;;;;;;;;;4993657;28;20466;-77
2022/08/14 08:05:26;;;;;;;1.83;1.40;;;;;;;;;;4993522;28;20034;-77
2022/08/14 08:07:52;;;;;;;2.38;1.95;;;;;;;;;;4995131;28;20030;-77
2022/08/14 08:10:32;;;;;;;1.70;1.50;;;;;;;;;;4995689;28;20061;-77
2022/08/14 08:13:14;;;;;;;2.17;1.45;;;;;;;;;;4996924;28;20465;-77
2022/08/14 08:15:52;;;;;;;1.50;1.30;;;;;;;;;;4995476;28;20026;-77
2022/08/14 08:18:23;;;;;;;1.63;1.52;;;;;;;;;;4981413;28;20026;-77
2022/08/14 08:20:53;;;;;;;1.83;1.65;;;;;;;;;;4997827;28;20058;-77
2022/08/14 08:23:38;;;;;;;3.08;1.92;;;;;;;;;;4998055;28;20026;-78
2022/08/14 08:26:03;;;;;;;2.28;1.70;;;;;;;;;;4979335;28;20033;-77
2022/08/14 08:28:30;;;;;;;1.88;1.52;;;;;;;;;;4995270;28;20384;-76
2022/08/14 08:30:57;;;;;;;1.77;1.63;;;;;;;;;;4998235;28;20102;-77
2022/08/14 08:33:26;;;;;;;1.65;1.55;;;;;;;;;;4997748;28;20029;-77
2022/08/14 08:36:07;;;;;;;2.08;1.83;;;;;;;;;;4997732;28;20034;-77
2022/08/14 08:38:35;;;;;;;2.80;2.00;;;;;;;;;;4997648;28;20033;-77
2022/08/14 08:41:06;;;;;;;1.70;1.60;;;;;;;;;;4997226;28;20042;-76
2022/08/14 08:43:34;;;;;;;2.05;1.85;;;;;;;;;;4997456;28;20113;-77
2022/08/14 08:46:01;;;;;;;1.75;1.65;;;;;;;;;;4998308;28;20046;-76
2022/08/14 08:48:29;;;;;;;2.28;1.88;;;;;;;;;;4997351;28;20037;-76
2022/08/14 08:51:00;;;;;;;1.60;1.50;;;;;;;;;;4997084;28;20022;-77
2022/08/14 08:53:33;;;;;;;2.10;1.80;;;;;;;;;;4997146;28;20535;-77
2022/08/14 08:56:00;;;;;;;1.48;1.30;;;;;;;;;;4997160;28;20030;-77
2022/08/14 08:58:28;;;;;;;1.70;1.50;;;;;;;;;;4996881;28;20030;-76
2022/08/14 09:00:56;;;;;;;2.55;1.88;;;;;;;;;;4995401;28;20366;-77
2022/08/14 09:03:27;;;;;;;1.95;1.60;;;;;;;;;;4996854;28;20029;-76
2022/08/14 09:05:55;;;;;;;2.13;1.50;;;;;;;;;;4996761;28;20022;-78
2022/08/14 09:08:49;;;;;;;1.30;1.20;;;;;;;;;;4996018;28;20035;-76
2022/08/14 09:11:15;;;;;;;1.35;1.17;;;;;;;;;;4998307;28;20026;-77
2022/08/14 09:13:45;;;;;;;1.67;1.58;;;;;;;;;;4996587;28;20029;-76
2022/08/14 09:16:14;;;;;;;2.08;1.73;;;;;;;;;;5014592;28;20415;-78
2022/08/14 09:18:39;;;;;;;1.42;1.33;;;;;;;;;;4997995;28;20079;-76
2022/08/14 09:21:06;;;;;;;2.50;1.92;;;;;;;;;;4994531;28;20097;-77
2022/08/14 09:23:52;;;;;;;2.53;2.25;;;;;;;;;;5013924;28;20034;-77
2022/08/14 09:26:20;;;;;;;2.92;2.17;;;;;;;;;;5011745;28;20116;-79
2022/08/14 09:28:54;;;;;;;1.52;1.42;;;;;;;;;;5013496;28;20029;-77
2022/08/14 09:31:19;;;;;;;1.70;1.35;;;;;;;;;;5001311;28;20038;-75
2022/08/14 09:34:00;;;;;;;1.92;1.75;;;;;;;;;;4997381;28;20034;-76
2022/08/14 09:36:53;;;;;;;1.93;1.73;;;;;;;;;;5010692;28;20045;-76
2022/08/14 09:39:56;;;;;;;1.88;1.60;;;;;;;;;;5013995;28;20491;-76
2022/08/14 09:42:25;;;;;;;1.98;1.77;;;;;;;;;;4954796;28;20052;-77
2022/08/14 09:45:03;;;;;;;2.13;1.55;;;;;;;;;;5013093;28;20080;-77
2022/08/14 09:48:12;;;;;;;1.92;1.20;;;;;;;;;;4995037;28;20080;-77
2022/08/14 09:50:48;;;;;;;1.70;1.52;;;;;;;;;;5007277;28;20037;-77
2022/08/14 09:53:32;;;;;;;1.35;1.17;;;;;;;;;;4994470;28;20145;-77
2022/08/14 09:56:17;;;;;;;1.90;1.80;;;;;;;;;;5007633;28;20030;-77
2022/08/14 09:58:50;;;;;;;1.80;1.67;;;;;;;;;;5012231;28;20099;-76
2022/08/14 10:01:17;;;;;;;1.60;1.50;;;;;;;;;;4997412;28;20475;-77
2022/08/14 10:03:58;;;;;;;1.75;1.40;;;;;;;;;;5012549;28;20048;-77
2022/08/14 10:06:34;;;;;;;1.90;1.70;;;;;;;;;;5005315;28;20042;-76
2022/08/14 10:09:02;;;;;;;1.60;1.20;;;;;;;;;;4994656;28;20026;-77
2022/08/14 10:12:05;;;;;;;1.90;1.70;;;;;;;;;;4996036;28;20461;-77
2022/08/14 10:14:55;;;;;;;1.80;1.38;;;;;;;;;;4974187;28;20038;-76
2022/08/14 10:17:25;;;;;;;2.95;1.95;;;;;;;;;;4974927;28;20045;-76
2022/08/14 10:19:51;;;;;;;1.83;1.67;;;;;;;;;;4973877;28;20031;-78
2022/08/14 10:22:29;;;;;;;1.83;1.35;;;;;;;;;;4971257;28;20465;-77
2022/08/14 10:24:57;;;;;;;1.58;1.48;;;;;;;;;;4973089;28;20118;-75
2022/08/14 10:27:31;;;;;;;1.80;1.55;;;;;;;;;;4973268;28;20039;-76
2022/08/14 10:30:03;;;;;;;2.08;1.65;;;;;;;;;;4928314;29;20445;-76
2022/08/14 10:32:43;;;;;;;1.67;1.55;;;;;;;;;;4967975;28;20027;-75
2022/08/14 10:35:14;;;;;;;3.40;1.65;;;;;;;;;;4971773;28;20472;-76
2022/08/14 10:37:45;;;;;;;1.13;0.95;;;;;;;;;;4974361;28;20470;-76
2022/08/14 10:40:13;;;;;;;1.52;1.20;;;;;;;;;;4955889;28;20030;-75
2022/08/14 10:42:42;;;;;;;1.95;1.55;;;;;;;;;;4972649;28;20106;-75
2022/08/14 10:45:38;;;;;;;1.92;1.25;;;;;;;;;;4973156;28;20078;-75
2022/08/14 10:48:18;;;;;;;1.60;1.35;;;;;;;;;;4976377;28;20096;-76
2022/08/14 10:50:49;;;;;;;1.73;1.42;;;;;;;;;;4992165;28;20048;-75
2022/08/14 10:53:14;;;;;;;1.63;1.52;;;;;;;;;;4995659;28;20026;-76
2022/08/14 10:55:59;;;;;;;1.30;1.20;;;;;;;;;;4993098;28;20049;-77
2022/08/14 10:58:43;;;;;;;2.35;1.88;;;;;;;;;;4971281;28;20029;-76
2022/08/14 11:01:08;;;;;;;1.60;1.40;;;;;;;;;;4990165;28;20110;-76
2022/08/14 11:03:39;;;;;;;2.25;1.73;;;;;;;;;;4992710;28;20386;-75
2022/08/14 11:06:18;;;;;;;1.42;1.33;;;;;;;;;;4995758;28;20026;-76
2022/08/14 11:08:45;;;;;;;2.28;1.67;;;;;;;;;;4993768;28;20405;-76
2022/08/14 11:11:11;;;;;;;2.30;1.30;;;;;;;;;;4994871;28;20046;-76
2022/08/14 11:13:45;;;;;;;1.52;1.38;;;;;;;;;;4992809;28;20022;-77
2022/08/14 11:16:14;;;;;;;2.17;1.20;;;;;;;;;;4993868;28;20037;-77
2022/08/14 11:18:46;;;;;;;2.08;1.63;;;;;;;;;;4995890;28;20061;-76
2022/08/14 11:21:23;;;;;;;2.05;1.55;;;;;;;;;;4961686;28;20117;-74
2022/08/14 11:23:49;;;;;;;1.92;1.75;;;;;;;;;;4997492;28;20054;-76
2022/08/14 11:26:19;;;;;;;1.40;1.30;;;;;;;;;;4994996;28;20412;-78
2022/08/14 11:28:48;;;;;;;1.52;1.42;;;;;;;;;;5006181;28;20025;-77
2022/08/14 11:31:15;;;;;;;1.50;1.40;;;;;;;;;;5005000;28;20366;-77
2022/08/14 11:33:40;;;;;;;1.98;1.63;;;;;;;;;;4982917;28;20031;-76
2022/08/14 11:36:12;;;;;;;1.98;1.73;;;;;;;;;;4995125;28;20042;-77
2022/08/14 11:38:39;;;;;;;2.55;1.52;;;;;;;;;;4995326;28;20032;-77
2022/08/14 11:41:07;;;;;;;2.25;1.50;;;;;;;;;;4987503;28;20031;-78
2022/08/14 11:43:42;;;;;;;3.90;2.25;;;;;;;;;;4976251;28;20023;-78
2022/08/14 11:46:09;;;;;;;1.60;1.50;;;;;;;;;;4987447;28;20038;-78
2022/08/14 11:49:03;;;;;;;1.85;1.50;;;;;;;;;;4990399;28;20493;-77
2022/08/14 11:51:30;;;;;;;2.75;1.83;;;;;;;;;;4981942;28;20039;-77
2022/08/14 11:54:00;;;;;;;1.45;1.17;;;;;;;;;;4984664;28;20030;-78
2022/08/14 11:56:34;;;;;;;1.80;1.20;;;;;;;;;;4988751;28;20031;-75
2022/08/14 11:59:01;;;;;;;2.00;1.38;;;;;;;;;;4991392;28;20041;-77
2022/08/14 12:01:32;;;;;;;2.10;1.90;;;;;;;;;;4995483;28;20026;-75
2022/08/14 12:04:20;;;;;;;1.23;1.13;;;;;;;;;;4994644;28;20030;-76
2022/08/14 12:06:51;;;;;;;2.35;1.50;;;;;;;;;;4987156;28;20053;-76
2022/08/14 12:09:28;;;;;;;2.20;1.45;;;;;;;;;;5009081;28;20034;-76
2022/08/14 12:11:54;;;;;;;1.30;1.20;;;;;;;;;;4993526;28;20045;-77
2022/08/14 12:14:28;;;;;;;1.35;1.25;;;;;;;;;;4993809;28;20053;-77
2022/08/14 12:17:06;;;;;;;1.70;1.35;;;;;;;;;;4992362;28;20101;-77
2022/08/14 12:20:13;;;;;;;1.17;1.08;;;;;;;;;;4971766;28;20494;-80
2022/08/14 12:22:45;;;;;;;1.42;1.30;;;;;;;;;;4958242;28;20130;-80
2022/08/14 12:25:22;;;;;;;1.92;1.42;;;;;;;;;;4983518;28;20465;-77
2022/08/14 12:28:31;;;;;;;3.05;2.53;;;;;;;;;;5009395;28;20120;-77
2022/08/14 12:31:22;;;;;;;1.63;1.45;;;;;;;;;;4994501;28;20103;-77
2022/08/14 12:34:02;;;;;;;2.33;1.73;;;;;;;;;;4976160;28;20085;-78
2022/08/14 12:36:30;;;;;;;1.85;1.70;;;;;;;;;;4977959;28;20121;-79
2022/08/14 12:39:28;;;;;;;1.85;1.52;;;;;;;;;;4989478;28;20074;-79
2022/08/14 12:42:00;;;;;;;2.05;1.85;;;;;;;;;;4972483;28;20034;-80
2022/08/14 12:44:37;;;;;;;1.88;1.75;;;;;;;;;;4942250;28;20067;-80
2022/08/14 12:47:02;;;;;;;1.90;1.70;;;;;;;;;;4953547;29;20045;-78
2022/08/14 12:49:28;;;;;;;2.03;1.48;;;;;;;;;;4952267;29;20367;-78
2022/08/14 12:52:08;;;;;;;1.55;1.35;;;;;;;;;;4937278;29;20043;-78
2022/08/14 12:54:34;;;;;;;1.77;1.58;;;;;;;;;;4949017;28;20134;-77
2022/08/14 12:57:12;;;;;;;1.85;1.65;;;;;;;;;;4923642;29;20047;-78
2022/08/14 12:59:42;;;;;;;2.47;1.75;;;;;;;;;;4939045;29;20122;-78
2022/08/14 13:02:37;;;;;;;1.77;1.58;;;;;;;;;;4916743;29;20067;-78
2022/08/14 13:05:11;;;;;;;1.58;1.48;;;;;;;;;;4927776;29;20027;-79
2022/08/14 13:11:00;;;;;;;2.47;1.30;;;;;;;;;;4936949;29;20031;-78
2022/08/14 13:13:51;;;;;;;2.00;1.45;;;;;;;;;;4945876;28;20035;-80
2022/08/14 13:16:30;;;;;;;1.63;1.13;;;;;;;;;;4983416;28;20117;-79
2022/08/14 13:19:02;;;;;;;1.20;1.10;;;;;;;;;;4954855;28;20031;-80
2022/08/14 13:21:39;;;;;;;2.42;1.65;;;;;;;;;;4981382;28;20064;-79
2022/08/14 13:24:28;;;;;;;2.75;1.77;;;;;;;;;;4962334;28;20097;-78
2022/08/14 13:27:03;;;;;;;2.05;1.85;;;;;;;;;;4968433;28;20039;-79
2022/08/14 13:29:30;;;;;;;1.35;1.25;;;;;;;;;;4957555;28;20049;-79
2022/08/14 13:32:04;;;;;;;2.25;1.70;;;;;;;;;;4972848;28;20035;-80
2022/08/14 13:34:30;;;;;;;1.38;1.27;;;;;;;;;;4988200;28;20065;-78
2022/08/14 13:36:56;;;;;;;2.08;1.85;;;;;;;;;;4987003;28;20042;-78
2022/08/14 13:39:25;;;;;;;1.58;1.48;;;;;;;;;;4985994;28;20084;-78
2022/08/14 13:41:53;;;;;;;2.08;1.50;;;;;;;;;;4983636;28;20067;-77
2022/08/14 13:44:19;;;;;;;1.35;1.10;;;;;;;;;;4993408;28;20034;-79
2022/08/14 13:46:48;;;;;;;1.77;1.58;;;;;;;;;;4976671;28;20204;-78
2022/08/14 13:49:23;;;;;;;2.00;1.42;;;;;;;;;;4974801;28;20169;-80
2022/08/14 13:51:57;;;;;;;4.78;1.92;;;;;;;;;;4987856;28;20156;-78
2022/08/14 13:54:31;;;;;;;1.58;1.08;;;;;;;;;;4985981;28;20034;-79
2022/08/14 13:57:02;;;;;;;1.92;1.55;;;;;;;;;;4990781;28;20034;-78
2022/08/14 13:59:35;;;;;;;1.20;1.10;;;;;;;;;;4980183;28;20399;-80
2022/08/14 14:02:17;;;;;;;1.90;1.38;;;;;;;;;;4991166;28;20058;-79
2022/08/14 14:04:56;;;;;;;1.75;1.08;;;;;;;;;;4963545;28;20096;-80
2022/08/14 14:07:25;;;;;;;1.77;1.63;;;;;;;;;;4986418;28;20038;-77
2022/08/14 14:09:53;;;;;;;2.20;1.70;;;;;;;;;;4970175;28;20023;-79
2022/08/14 14:12:26;;;;;;;1.70;1.40;;;;;;;;;;4959209;28;20030;-78
2022/08/14 14:18:55;;;;;;;1.50;1.27;;;;;;;;;;4987529;28;20045;-83
2022/08/14 14:21:42;;;;;;;7.57;1.83;;;;;;;;;;4973362;28;20043;-79
2022/08/14 14:24:11;;;;;;;1.67;1.33;;;;;;;;;;4979900;28;20242;-78
2022/08/14 14:30:00;;;;;;;2.33;1.77;;;;;;;;;;4982952;28;20321;-78
2022/08/14 14:32:56;;;;;;;2.53;1.73;;;;;;;;;;4983952;28;20046;-80
2022/08/14 14:35:22;;;;;;;1.92;1.60;;;;;;;;;;4978326;28;20037;-77
2022/08/14 14:37:51;;;;;;;2.25;1.75;;;;;;;;;;4981434;28;20031;-77
2022/08/14 14:40:22;;;;;;;4.30;1.40;;;;;;;;;;4991789;28;20066;-76
2022/08/14 14:43:03;;;;;;;1.50;1.20;;;;;;;;;;4988277;28;20031;-76
2022/08/14 14:45:47;;;;;;;1.45;1.35;;;;;;;;;;4960195;28;20276;-75
2022/08/14 14:48:30;;;;;;;1.33;1.23;;;;;;;;;;4980943;28;20470;-76
2022/08/14 14:51:00;;;;;;;1.83;1.50;;;;;;;;;;4973950;28;20042;-76
2022/08/14 14:53:39;;;;;;;3.20;2.45;;;;;;;;;;4981648;28;20018;-76
2022/08/14 14:56:09;;;;;;;1.27;1.08;;;;;;;;;;4984463;28;20099;-76
2022/08/14 14:58:35;;;;;;;1.75;1.23;;;;;;;;;;4981332;28;20354;-77
2022/08/14 15:01:03;;;;;;;2.28;1.88;;;;;;;;;;4983404;28;20026;-76
2022/08/14 15:03:47;;;;;;;2.17;1.52;;;;;;;;;;4978439;28;20038;-76
2022/08/14 15:06:16;;;;;;;1.38;1.20;;;;;;;;;;4981628;28;20439;-75
2022/08/14 15:11:56;;;;;;;1.48;1.02;;;;;;;;;;4987119;28;20039;-76
2022/08/14 15:17:13;;;;;;;1.48;1.00;;;;;;;;;;4991396;28;20104;-76
2022/08/14 15:19:40;;;;;;;1.83;1.38;;;;;;;;;;4994253;28;20038;-74
2022/08/14 15:22:07;;;;;;;1.35;1.00;;;;;;;;;;4963747;28;20339;-75
2022/08/14 15:24:58;;;;;;;1.20;1.00;;;;;;;;;;4979946;28;20030;-76
2022/08/14 15:27:23;;;;;;;1.63;1.23;;;;;;;;;;4988946;28;20022;-76
2022/08/14 15:29:49;;;;;;;1.38;1.20;;;;;;;;;;4988462;28;20033;-74
2022/08/14 15:32:33;;;;;;;1.88;1.13;;;;;;;;;;4981218;28;20525;-75
2022/08/14 15:35:02;;;;;;;1.58;1.27;;;;;;;;;;4986872;28;20050;-75
2022/08/14 15:37:35;;;;;;;1.67;1.10;;;;;;;;;;4976017;28;20050;-75
2022/08/14 15:40:05;;;;;;;1.65;1.42;;;;;;;;;;4986559;28;20019;-74
2022/08/14 15:42:36;;;;;;;1.17;0.85;;;;;;;;;;4984199;28;20027;-77
2022/08/14 15:45:21;;;;;;;2.25;1.58;;;;;;;;;;4976418;28;20462;-74